createdAt,value
2023-01-01T00:00:22.463Z,10.70
2023-01-01T00:02:44.901Z,13.60
2023-01-01T00:05:08.257Z,13.15
2023-01-01T00:10:11.541Z,16.05
2023-01-01T00:12:34.003Z,14.77
2023-01-01T00:14:56.444Z,13.75
2023-01-01T00:17:18.786Z,13.53
2023-01-01T00:19:41.193Z,13.15
2023-01-01T00:22:27.957Z,12.30
2023-01-01T00:24:45.832Z,12.65
2023-01-01T00:27:08.209Z,12.60
2023-01-01T00:29:30.605Z,12.27
2023-01-01T00:31:53.121Z,12.67
2023-01-01T00:34:15.621Z,24.65
2023-01-01T00:36:38.069Z,11.02
2023-01-01T00:39:04.359Z,8.93
2023-01-01T00:41:26.718Z,13.20
2023-01-01T00:43:49.105Z,13.33
2023-01-01T00:46:12.020Z,11.73
2023-01-01T00:48:34.540Z,9.18
2023-01-01T00:50:56.915Z,9.70
2023-01-01T00:53:20.272Z,10.03
2023-01-01T00:55:42.758Z,12.85
2023-01-01T00:58:05.191Z,10.43
2023-01-01T01:00:27.774Z,11.65
2023-01-01T01:02:50.375Z,10.85
2023-01-01T01:05:12.787Z,12.38
2023-01-01T01:07:38.742Z,11.37
2023-01-01T01:10:01.206Z,11.70
2023-01-01T01:12:23.606Z,9.90
2023-01-01T01:14:47.110Z,11.57
2023-01-01T01:17:09.527Z,10.35
2023-01-01T01:19:31.961Z,11.17
2023-01-01T01:21:54.571Z,10.00
2023-01-01T01:24:16.978Z,13.02
2023-01-01T01:26:39.366Z,11.93
2023-01-01T01:29:01.845Z,16.57
2023-01-01T01:31:25.931Z,14.02
2023-01-01T01:33:49.200Z,15.15
2023-01-01T01:38:34.254Z,15.38
2023-01-01T01:40:56.819Z,15.60
2023-01-01T01:43:25.669Z,16.13
2023-01-01T01:45:48.486Z,14.15
2023-01-01T01:48:11.338Z,14.82
2023-01-01T01:50:36.571Z,13.73
2023-01-01T01:53:27.389Z,17.27
2023-01-01T01:55:54.055Z,14.27
2023-01-01T01:58:16.719Z,12.93
2023-01-01T02:00:39.139Z,13.48
2023-01-01T02:03:30.237Z,13.97
2023-01-01T02:05:52.802Z,12.75
2023-01-01T02:08:15.934Z,16.55
2023-01-01T02:10:38.292Z,13.43
2023-01-01T02:13:00.667Z,12.00
2023-01-01T02:15:30.247Z,13.47
2023-01-01T02:18:03.539Z,11.70
2023-01-01T02:20:47.472Z,9.23
2023-01-01T02:23:53.072Z,9.35
2023-01-01T02:26:38.810Z,11.15
2023-01-01T02:29:25.897Z,13.27
2023-01-01T02:31:58.872Z,9.85
2023-01-01T02:34:23.507Z,9.90
2023-01-01T02:36:50.929Z,10.93
2023-01-01T02:39:13.305Z,8.95
2023-01-01T02:41:40.220Z,10.60
2023-01-01T02:46:31.100Z,6.15
2023-01-01T02:48:53.687Z,7.75
2023-01-01T02:51:36.361Z,9.43
2023-01-01T02:54:17.145Z,7.35
2023-01-01T02:56:49.029Z,7.55
2023-01-01T02:59:34.671Z,8.35
2023-01-01T03:02:05.984Z,6.45
2023-01-01T03:04:50.484Z,8.35
2023-01-01T03:08:08.631Z,7.60
2023-01-01T03:10:56.852Z,7.60
2023-01-01T03:13:45.402Z,6.50
2023-01-01T03:16:18.053Z,10.23
2023-01-01T03:18:45.141Z,6.70
2023-01-01T03:21:07.506Z,7.43
2023-01-01T03:23:36.041Z,7.67
2023-01-01T03:26:00.460Z,6.90
2023-01-01T03:28:47.870Z,7.13
2023-01-01T03:31:11.081Z,7.22
2023-01-01T03:33:46.618Z,6.32
2023-01-01T03:36:21.733Z,6.50
2023-01-01T03:38:52.711Z,8.07
2023-01-01T03:41:38.005Z,9.95
2023-01-01T03:44:24.157Z,7.13
2023-01-01T03:46:46.611Z,9.15
2023-01-01T03:49:10.623Z,6.05
2023-01-01T03:52:12.591Z,8.50
2023-01-01T03:55:02.684Z,7.55
2023-01-01T03:57:47.794Z,11.95
2023-01-01T04:00:18.878Z,8.40
2023-01-01T04:02:48.303Z,8.30
2023-01-01T04:05:11.138Z,8.93
2023-01-01T04:07:33.666Z,10.13
2023-01-01T04:09:56.019Z,6.93
2023-01-01T04:12:18.486Z,7.07
2023-01-01T04:14:41.860Z,7.47
2023-01-01T04:19:27.462Z,6.88
2023-01-01T04:21:49.984Z,5.97
2023-01-01T04:24:12.455Z,5.53
2023-01-01T04:26:34.897Z,7.45
2023-01-01T04:28:57.328Z,6.23
2023-01-01T04:31:19.672Z,8.50
2023-01-01T04:33:42.105Z,9.60
2023-01-01T04:36:06.856Z,8.77
2023-01-01T04:38:29.242Z,6.78
2023-01-01T04:40:59.615Z,5.37
2023-01-01T04:43:22.011Z,10.23
2023-01-01T04:45:44.439Z,7.03
2023-01-01T04:48:07.308Z,6.15
2023-01-01T04:50:29.692Z,10.48
2023-01-01T04:52:54.080Z,12.17
2023-01-01T04:55:16.620Z,7.03
2023-01-01T04:57:39.176Z,8.40
2023-01-01T05:00:01.649Z,8.48
2023-01-01T05:02:24.276Z,7.80
2023-01-01T05:04:46.794Z,8.05
2023-01-01T05:07:09.257Z,10.57
2023-01-01T05:09:31.646Z,6.38
2023-01-01T05:11:56.157Z,8.87
2023-01-01T05:14:18.547Z,9.45
2023-01-01T05:16:41.210Z,9.50
2023-01-01T05:19:04.408Z,6.57
2023-01-01T05:21:32.956Z,7.47
2023-01-01T05:23:56.964Z,7.22
2023-01-01T05:26:21.336Z,6.68
2023-01-01T05:28:43.958Z,9.57
2023-01-01T05:31:13.138Z,10.02
2023-01-01T05:33:36.095Z,8.60
2023-01-01T05:35:58.521Z,7.68
2023-01-01T05:38:21.038Z,5.13
2023-01-01T05:40:43.478Z,10.15
2023-01-01T05:43:07.497Z,10.10
2023-01-01T05:45:29.885Z,7.57
2023-01-01T05:47:52.407Z,7.57
2023-01-01T05:50:14.853Z,8.70
2023-01-01T05:52:37.301Z,10.13
2023-01-01T05:55:01.191Z,9.27
2023-01-01T05:57:23.648Z,13.90
2023-01-01T05:59:46.062Z,6.70
2023-01-01T06:02:08.618Z,16.20
2023-01-01T06:04:31.448Z,10.05
2023-01-01T06:06:53.892Z,13.20
2023-01-01T06:09:16.255Z,9.37
2023-01-01T06:11:39.771Z,12.00
2023-01-01T06:14:02.615Z,8.23
2023-01-01T06:16:25.401Z,8.23
2023-01-01T06:18:47.823Z,9.93
2023-01-01T06:21:15.648Z,7.40
2023-01-01T06:23:38.088Z,14.05
2023-01-01T06:26:20.490Z,8.93
2023-01-01T06:28:43.478Z,8.10
2023-01-01T06:31:07.314Z,10.73
2023-01-01T06:33:29.997Z,10.88
2023-01-01T06:35:52.404Z,9.32
2023-01-01T06:38:14.820Z,13.83
2023-01-01T06:40:37.175Z,9.60
2023-01-01T06:42:59.571Z,13.27
2023-01-01T06:45:21.994Z,5.87
2023-01-01T06:47:44.434Z,9.00
2023-01-01T06:50:07.623Z,10.33
2023-01-01T06:52:30.111Z,10.95
2023-01-01T06:54:52.497Z,11.17
2023-01-01T06:57:16.033Z,13.87
2023-01-01T06:59:38.390Z,12.27
2023-01-01T07:02:00.991Z,16.77
2023-01-01T07:04:23.504Z,11.65
2023-01-01T07:06:45.908Z,9.23
2023-01-01T07:09:08.693Z,12.93
2023-01-01T07:11:31.298Z,9.10
2023-01-01T07:13:54.167Z,8.70
2023-01-01T07:16:17.294Z,8.50
2023-01-01T07:18:39.778Z,14.70
2023-01-01T07:21:06.056Z,7.03
2023-01-01T07:23:30.452Z,9.52
2023-01-01T07:25:53.436Z,11.02
2023-01-01T07:28:15.871Z,10.68
2023-01-01T07:30:38.292Z,9.90
2023-01-01T07:33:00.719Z,13.57
2023-01-01T07:35:23.088Z,13.75
2023-01-01T07:37:45.603Z,14.83
2023-01-01T07:40:08.901Z,12.30
2023-01-01T07:44:53.642Z,11.95
2023-01-01T07:47:26.276Z,12.63
2023-01-01T07:49:48.701Z,11.67
2023-01-01T07:52:11.146Z,13.93
2023-01-01T07:54:33.534Z,10.20
2023-01-01T07:56:55.939Z,14.10
2023-01-01T07:59:20.525Z,10.43
2023-01-01T08:01:43.348Z,11.20
2023-01-01T08:04:06.082Z,13.25
2023-01-01T08:06:28.472Z,15.98
2023-01-01T08:08:50.925Z,11.20
2023-01-01T08:11:13.362Z,12.07
2023-01-01T08:13:35.780Z,10.27
2023-01-01T08:15:59.078Z,8.10
2023-01-01T08:18:21.609Z,11.30
2023-01-01T08:20:44.031Z,13.03
2023-01-01T08:23:07.697Z,14.10
2023-01-01T08:25:30.267Z,15.95
2023-01-01T08:27:52.700Z,21.73
2023-01-01T08:30:15.876Z,10.25
2023-01-01T08:32:38.263Z,12.82
2023-01-01T08:35:00.679Z,9.73
2023-01-01T08:37:23.388Z,10.67
2023-01-01T08:39:48.811Z,12.70
2023-01-01T08:42:12.573Z,10.15
2023-01-01T08:44:35.107Z,14.68
2023-01-01T08:46:57.526Z,9.40
2023-01-01T08:49:19.915Z,11.10
2023-01-01T08:51:42.370Z,14.33
2023-01-01T08:54:05.150Z,11.60
2023-01-01T08:56:27.569Z,12.57
2023-01-01T08:58:50.035Z,6.77
2023-01-01T09:01:12.509Z,12.63
2023-01-01T09:03:35.081Z,16.07
2023-01-01T09:05:57.780Z,12.27
2023-01-01T09:08:20.569Z,9.15
2023-01-01T09:10:46.210Z,9.80
2023-01-01T09:13:08.610Z,10.10
2023-01-01T09:15:30.984Z,10.83
2023-01-01T09:17:53.371Z,15.07
2023-01-01T09:20:15.841Z,9.87
2023-01-01T09:22:38.262Z,13.10
2023-01-01T09:25:00.620Z,10.17
2023-01-01T09:27:23.182Z,12.27
2023-01-01T09:29:45.582Z,7.80
2023-01-01T09:32:07.962Z,14.57
2023-01-01T09:34:30.376Z,8.73
2023-01-01T09:36:52.825Z,7.77
2023-01-01T09:39:16.020Z,13.68
2023-01-01T09:44:21.534Z,10.23
2023-01-01T09:46:43.960Z,9.73
2023-01-01T09:49:13.595Z,9.10
2023-01-01T09:51:41.116Z,8.43
2023-01-01T09:54:29.009Z,12.02
2023-01-01T09:56:53.434Z,7.70
2023-01-01T09:59:15.884Z,14.00
2023-01-01T10:02:12.031Z,8.07
2023-01-01T10:05:09.036Z,11.02
2023-01-01T10:07:52.105Z,16.98
2023-01-01T10:10:46.549Z,10.73
2023-01-01T10:13:20.764Z,11.93
2023-01-01T10:15:57.779Z,15.00
2023-01-01T10:18:27.943Z,8.05
2023-01-01T10:21:27.703Z,5.65
2023-01-01T10:23:56.494Z,9.10
2023-01-01T10:26:22.719Z,14.05
2023-01-01T10:29:15.016Z,11.48
2023-01-01T10:31:41.257Z,7.28
2023-01-01T10:34:24.539Z,10.95
2023-01-01T10:36:47.025Z,12.48
2023-01-01T10:39:16.512Z,8.63
2023-01-01T10:41:38.973Z,10.20
2023-01-01T10:44:01.553Z,11.60
2023-01-01T10:46:31.301Z,8.95
2023-01-01T10:49:10.497Z,15.85
2023-01-01T10:51:32.863Z,11.90
2023-01-01T10:53:55.827Z,16.10
2023-01-01T10:56:23.318Z,7.80
2023-01-01T10:58:54.808Z,13.57
2023-01-01T11:01:29.672Z,6.90
2023-01-01T11:04:19.255Z,9.80
2023-01-01T11:06:48.189Z,8.18
2023-01-01T11:09:28.233Z,15.45
2023-01-01T11:12:08.022Z,10.10
2023-01-01T11:17:10.866Z,10.52
2023-01-01T11:19:36.898Z,11.37
2023-01-01T11:22:00.215Z,5.68
2023-01-01T11:26:53.902Z,12.50
2023-01-01T11:29:16.427Z,12.77
2023-01-01T11:31:39.498Z,10.23
2023-01-01T11:34:02.266Z,9.27
2023-01-01T11:36:35.314Z,9.77
2023-01-01T11:39:19.501Z,10.25
2023-01-01T11:41:50.555Z,10.25
2023-01-01T11:44:14.108Z,9.50
2023-01-01T11:46:37.706Z,13.40
2023-01-01T11:49:00.148Z,12.32
2023-01-01T11:51:32.858Z,8.40
2023-01-01T11:54:09.462Z,10.82
2023-01-01T11:56:31.827Z,12.23
2023-01-01T11:59:16.508Z,11.23
2023-01-01T12:02:02.445Z,8.38
2023-01-01T12:04:50.548Z,11.20
2023-01-01T12:07:17.072Z,12.10
2023-01-01T12:10:15.711Z,7.75
2023-01-01T12:12:41.308Z,15.20
2023-01-01T12:15:41.236Z,11.40
2023-01-01T12:18:45.038Z,11.10
2023-01-01T12:21:25.134Z,9.50
2023-01-01T12:23:47.513Z,10.55
2023-01-01T12:26:34.591Z,14.53
2023-01-01T12:29:16.129Z,16.70
2023-01-01T12:31:43.852Z,9.98
2023-01-01T12:34:50.785Z,9.55
2023-01-01T12:37:22.022Z,10.10
2023-01-01T12:40:01.988Z,9.93
2023-01-01T12:43:08.604Z,5.68
2023-01-01T12:46:13.184Z,10.63
2023-01-01T12:48:40.794Z,15.35
2023-01-01T12:51:33.389Z,10.77
2023-01-01T12:54:09.748Z,7.85
2023-01-01T12:56:48.439Z,7.28
2023-01-01T12:59:24.583Z,12.23
2023-01-01T13:01:47.104Z,11.90
2023-01-01T13:04:17.961Z,9.45
2023-01-01T13:06:48.243Z,9.30
2023-01-01T13:09:25.183Z,11.40
2023-01-01T13:11:58.866Z,10.45
2023-01-01T13:14:21.267Z,9.68
2023-01-01T13:16:51.915Z,7.63
2023-01-01T13:23:49.933Z,8.07
2023-01-01T13:26:18.327Z,9.63
2023-01-01T13:28:40.705Z,12.23
2023-01-01T13:31:03.088Z,9.67
2023-01-01T13:33:31.277Z,9.53
2023-01-01T13:36:19.573Z,9.27
2023-01-01T13:38:54.937Z,8.05
2023-01-01T13:40:57.024Z,6.30
2023-01-01T13:43:06.419Z,7.72
2023-01-01T13:45:30.380Z,9.23
2023-01-01T13:48:26.685Z,13.05
2023-01-01T13:50:50.048Z,8.30
2023-01-01T13:53:05.446Z,10.60
2023-01-01T13:55:52.969Z,11.93
2023-01-01T13:58:25.657Z,9.60
2023-01-01T14:01:00.471Z,7.35
2023-01-01T14:03:11.052Z,9.90
2023-01-01T14:05:23.236Z,15.15
2023-01-01T14:07:52.043Z,7.10
2023-01-01T14:10:35.838Z,11.50
2023-01-01T14:12:38.568Z,6.55
2023-01-01T14:16:43.130Z,11.05
2023-01-01T14:18:47.709Z,9.30
2023-01-01T14:20:53.601Z,9.52
2023-01-01T14:22:56.057Z,9.73
2023-01-01T14:24:58.247Z,8.88
2023-01-01T14:27:00.833Z,10.05
2023-01-01T14:29:08.445Z,7.80
2023-01-01T14:31:22.196Z,9.50
2023-01-01T14:33:30.472Z,10.02
2023-01-01T14:35:33.446Z,9.13
2023-01-01T14:37:36.432Z,12.60
2023-01-01T14:39:38.894Z,10.98
2023-01-01T14:41:41.436Z,11.55
2023-01-01T14:43:44.871Z,9.07
2023-01-01T14:45:47.591Z,10.45
2023-01-01T14:47:52.180Z,14.57
2023-01-01T14:49:56.211Z,12.27
2023-01-01T14:52:10.065Z,9.25
2023-01-01T14:54:22.276Z,9.98
2023-01-01T14:56:36.766Z,11.52
2023-01-01T14:58:40.578Z,8.05
2023-01-01T15:00:43.641Z,16.63
2023-01-01T15:02:46.094Z,10.68
2023-01-01T15:07:01.068Z,11.55
2023-01-01T15:09:03.395Z,11.82
2023-01-01T15:11:06.341Z,17.42
2023-01-01T15:13:09.157Z,13.05
2023-01-01T15:17:47.032Z,11.98
2023-01-01T15:20:18.627Z,15.52
2023-01-01T15:22:31.999Z,11.80
2023-01-01T15:24:34.668Z,11.10
2023-01-01T15:27:02.232Z,10.88
2023-01-01T15:29:09.280Z,15.80
2023-01-01T15:31:12.209Z,12.10
2023-01-01T15:33:18.441Z,13.48
2023-01-01T15:35:27.811Z,13.43
2023-01-01T15:37:54.081Z,12.00
2023-01-01T15:39:59.160Z,12.38
2023-01-01T15:42:02.021Z,13.68
2023-01-01T15:44:29.782Z,9.98
2023-01-01T15:46:32.942Z,14.57
2023-01-01T15:48:39.609Z,12.10
2023-01-01T15:51:03.467Z,15.55
2023-01-01T15:53:25.608Z,12.63
2023-01-01T15:55:33.373Z,12.07
2023-01-01T15:57:35.614Z,12.13
2023-01-01T16:01:41.319Z,15.00
2023-01-01T16:03:44.280Z,16.50
2023-01-01T16:05:47.923Z,10.45
2023-01-01T16:08:06.225Z,14.40
2023-01-01T16:10:15.795Z,14.93
2023-01-01T16:12:18.445Z,11.45
2023-01-01T16:14:20.956Z,14.10
2023-01-01T16:16:29.199Z,19.38
2023-01-01T16:18:36.587Z,14.23
2023-01-01T16:20:39.076Z,14.25
2023-01-01T16:22:41.278Z,14.23
2023-01-01T16:24:45.255Z,15.02
2023-01-01T16:26:48.722Z,12.70
2023-01-01T16:30:54.059Z,15.85
2023-01-01T16:32:57.097Z,14.23
2023-01-01T16:34:59.712Z,14.68
2023-01-01T16:37:02.282Z,13.73
2023-01-01T16:39:05.153Z,14.75
2023-01-01T16:43:18.118Z,12.70
2023-01-01T16:45:20.198Z,13.45
2023-01-01T16:47:23.361Z,15.18
2023-01-01T16:49:25.967Z,17.77
2023-01-01T16:53:32.441Z,15.73
2023-01-01T16:55:53.458Z,14.98
2023-01-01T16:58:48.022Z,13.05
2023-01-01T17:01:00.724Z,10.85
2023-01-01T17:03:23.309Z,11.57
2023-01-01T17:05:45.733Z,13.73
2023-01-01T17:08:08.297Z,12.43
2023-01-01T17:10:30.872Z,10.15
2023-01-01T17:12:54.921Z,17.58
2023-01-01T17:15:17.566Z,12.68
2023-01-01T17:17:39.968Z,11.13
2023-01-01T17:20:02.465Z,15.97
2023-01-01T17:22:27.930Z,13.73
2023-01-01T17:24:53.139Z,13.68
2023-01-01T17:27:15.555Z,12.47
2023-01-01T17:29:37.967Z,14.43
2023-01-01T17:32:00.583Z,9.23
2023-01-01T17:34:23.002Z,16.30
2023-01-01T17:36:45.627Z,13.57
2023-01-01T17:39:13.227Z,14.35
2023-01-01T17:41:35.714Z,11.70
2023-01-01T17:43:58.075Z,11.57
2023-01-01T17:46:26.073Z,11.85
2023-01-01T17:48:50.642Z,12.90
2023-01-01T17:51:13.422Z,12.88
2023-01-01T17:53:36.487Z,9.63
2023-01-01T17:55:58.938Z,14.63
2023-01-01T17:58:01.174Z,15.27
2023-01-01T18:00:04.026Z,14.93
2023-01-01T18:02:11.700Z,12.57
2023-01-01T18:04:14.233Z,11.88
2023-01-01T18:06:16.366Z,12.70
2023-01-01T18:08:18.779Z,12.52
2023-01-01T18:10:21.342Z,9.00
2023-01-01T18:12:24.052Z,10.95
2023-01-01T18:14:27.118Z,11.18
2023-01-01T18:16:30.837Z,12.27
2023-01-01T18:18:37.605Z,18.40
2023-01-01T18:20:39.803Z,11.82
2023-01-01T18:22:43.339Z,13.55
2023-01-01T18:24:45.827Z,12.80
2023-01-01T18:26:47.967Z,11.27
2023-01-01T18:29:01.403Z,14.95
2023-01-01T18:31:12.995Z,16.65
2023-01-01T18:33:15.885Z,13.38
2023-01-01T18:35:18.330Z,14.80
2023-01-01T18:37:20.405Z,17.92
2023-01-01T18:39:29.956Z,15.48
2023-01-01T18:42:09.609Z,14.00
2023-01-01T18:44:23.771Z,16.38
2023-01-01T18:46:28.700Z,21.23
2023-01-01T18:48:31.083Z,13.95
2023-01-01T18:50:35.970Z,13.40
2023-01-01T18:52:38.410Z,17.23
2023-01-01T18:54:41.414Z,16.27
2023-01-01T18:56:44.166Z,16.65
2023-01-01T18:58:49.443Z,12.88
2023-01-01T19:00:53.682Z,15.27
2023-01-01T19:03:03.725Z,14.60
2023-01-01T19:05:24.714Z,12.32
2023-01-01T19:07:27.362Z,14.75
2023-01-01T19:11:32.710Z,15.60
2023-01-01T19:13:37.401Z,14.40
2023-01-01T19:15:39.834Z,12.70
2023-01-01T19:17:42.828Z,17.25
2023-01-01T19:19:45.222Z,14.75
2023-01-01T19:21:51.773Z,16.27
2023-01-01T19:24:00.826Z,16.15
2023-01-01T19:26:04.311Z,15.35
2023-01-01T19:28:16.335Z,16.98
2023-01-01T19:30:23.383Z,15.23
2023-01-01T19:32:26.035Z,14.70
2023-01-01T19:34:28.389Z,16.33
2023-01-01T19:36:31.304Z,17.35
2023-01-01T19:40:36.531Z,18.42
2023-01-01T19:44:41.285Z,16.02
2023-01-01T19:46:43.547Z,20.42
2023-01-01T19:48:46.212Z,15.25
2023-01-01T19:50:49.155Z,12.90
2023-01-01T19:52:51.657Z,14.13
2023-01-01T19:54:54.630Z,16.50
2023-01-01T19:58:59.883Z,16.07
2023-01-01T20:01:03.242Z,16.65
2023-01-01T20:03:42.895Z,15.55
2023-01-01T20:05:34.866Z,16.33
2023-01-01T20:07:37.531Z,13.75
2023-01-01T20:11:42.897Z,19.67
2023-01-01T20:15:48.342Z,13.73
2023-01-01T20:17:50.974Z,15.90
2023-01-01T20:19:54.890Z,17.02
2023-01-01T20:22:14.250Z,17.92
2023-01-01T20:24:17.693Z,18.00
2023-01-01T20:26:20.981Z,17.30
2023-01-01T20:28:42.505Z,16.98
2023-01-01T20:30:45.027Z,17.73
2023-01-01T20:34:50.849Z,17.75
2023-01-01T20:37:12.490Z,17.10
2023-01-01T20:39:15.266Z,14.65
2023-01-01T20:41:23.418Z,19.65
2023-01-01T20:43:25.847Z,14.65
2023-01-01T20:45:29.409Z,16.30
2023-01-01T20:47:31.784Z,18.30
2023-01-01T20:49:34.695Z,18.42
2023-01-01T20:53:40.139Z,17.90
2023-01-01T20:55:42.466Z,16.95
2023-01-01T20:57:45.079Z,16.67
2023-01-01T20:59:47.689Z,19.10
2023-01-01T21:03:53.266Z,18.08
2023-01-01T21:05:56.018Z,24.55
2023-01-01T21:07:58.444Z,46.50
2023-01-01T21:12:04.240Z,30.60
2023-01-01T21:16:25.508Z,20.15
2023-01-01T21:18:28.517Z,22.10
2023-01-01T21:20:46.899Z,21.52
2023-01-01T21:22:49.249Z,20.88
2023-01-01T21:24:54.449Z,18.83
2023-01-01T21:27:15.502Z,18.45
2023-01-01T21:29:24.021Z,15.93
2023-01-01T21:31:29.517Z,17.27
2023-01-01T21:33:32.790Z,18.40
2023-01-01T21:37:47.228Z,17.63
2023-01-01T21:39:49.561Z,19.63
2023-01-01T21:41:52.192Z,18.55
2023-01-01T21:43:58.854Z,18.35
2023-01-01T21:46:07.163Z,15.90
2023-01-01T21:48:21.736Z,19.38
2023-01-01T21:50:25.718Z,17.88
2023-01-01T21:52:27.959Z,19.33
2023-01-01T21:56:44.220Z,16.48
2023-01-01T21:59:05.231Z,17.33
2023-01-01T22:01:41.020Z,18.27
2023-01-01T22:03:43.438Z,15.00
2023-01-01T22:05:57.347Z,15.77
2023-01-01T22:08:27.139Z,23.80
2023-01-01T22:10:37.485Z,22.17
2023-01-01T22:12:39.885Z,30.95
2023-01-01T22:15:27.708Z,20.98
2023-01-01T22:17:50.079Z,18.08
2023-01-01T22:20:22.100Z,16.20
2023-01-01T22:22:44.511Z,15.73
2023-01-01T22:25:32.919Z,22.50
2023-01-01T22:27:55.697Z,21.58
2023-01-01T22:30:17.998Z,17.70
2023-01-01T22:32:40.385Z,21.83
2023-01-01T22:35:18.968Z,21.20
2023-01-01T22:37:41.333Z,22.67
2023-01-01T22:40:04.037Z,17.90
2023-01-01T22:42:26.424Z,21.52
2023-01-01T22:44:58.157Z,22.20
2023-01-01T22:47:20.558Z,21.30
2023-01-01T22:49:46.929Z,22.33
2023-01-01T22:52:09.840Z,26.38
2023-01-01T22:54:32.213Z,28.40
2023-01-01T22:56:54.599Z,33.93
2023-01-01T22:59:17.020Z,25.10
2023-01-01T23:01:39.527Z,21.97
2023-01-01T23:04:02.033Z,25.35
2023-01-01T23:06:24.473Z,23.58
2023-01-01T23:08:46.887Z,20.97
2023-01-01T23:11:09.337Z,22.43
2023-01-01T23:13:50.438Z,23.70
2023-01-01T23:16:12.838Z,19.42
2023-01-01T23:18:36.354Z,18.10
2023-01-01T23:20:58.917Z,22.85
2023-01-01T23:23:21.249Z,21.55
2023-01-01T23:25:43.594Z,21.48
2023-01-01T23:28:05.952Z,22.58
2023-01-01T23:30:28.330Z,28.37
2023-01-01T23:32:50.756Z,22.07
2023-01-01T23:35:13.196Z,22.33
2023-01-01T23:37:35.641Z,20.85
2023-01-01T23:39:57.998Z,23.83
2023-01-01T23:42:20.401Z,20.17
2023-01-01T23:44:42.937Z,20.23
2023-01-01T23:47:05.400Z,18.60
2023-01-01T23:49:28.054Z,19.63
2023-01-01T23:51:50.422Z,17.60
2023-01-01T23:54:12.835Z,19.73
2023-01-01T23:56:35.231Z,20.77
2023-01-01T23:58:57.585Z,24.50
